Flushing, New York
Current Conditions -  °F | °C
As of 2:51 AM on Wednesday 22 Oct 2014 (Local Time) from KLGA Reporting Station
Light Rain Light Rain  
Wind Chill: 59°   Ceiling: 1200
Heat Index: 59°   Visibility: 10mi
Dew Point: 55°   Wind: 23mph
Humidity: 87%   Direction: 60°ENE
Pressure: 29.87"   Gusts: 26mph
Location:  40.77°N, 73.82°W
Report Text: KLGA 220651Z 06020G23KT 10SM -RA BKN012 OVC018 15/13 A2987 RMK AO2 RAB48 SLP115 P0000 T01500128
Loading
Personal Weather Stations






























Interactive Weather Map
Tropical Storm Tracking
New forecast layout! Learn more

10-Day Weather Forecast

Advertisements
Track Severe Weather on mobile